Time;durP1;ratioP1;P1;durP2;ratioP2;P2;SDS_P1;SDS_P2;PMS_P1;PMS_P2;Temp;Humidity;BMP_temperature;BMP_pressure;BME280_temperature;BME280_humidity;BME280_pressure;Samples;Min_cycle;Max_cycle;Signal;HPM_P1;HPM_P2
2023/07/27 00:00:22;;;;;;;1.02;0.63;;;;;;;;;;5105814;27;41540;-69
2023/07/27 00:02:50;;;;;;;1.25;0.77;;;;;;;;;;5100280;27;41275;-69
2023/07/27 00:05:18;;;;;;;1.45;0.60;;;;;;;;;;5097373;27;43156;-69
2023/07/27 00:07:46;;;;;;;0.50;0.50;;;;;;;;;;5105058;27;42576;-68
2023/07/27 00:10:15;;;;;;;1.10;0.70;;;;;;;;;;5107269;27;41490;-69
2023/07/27 00:12:43;;;;;;;0.93;0.80;;;;;;;;;;5104031;27;43304;-69
2023/07/27 00:15:11;;;;;;;0.80;0.60;;;;;;;;;;5108403;27;41290;-68
2023/07/27 00:17:39;;;;;;;1.20;0.80;;;;;;;;;;5108048;27;41688;-69
2023/07/27 00:20:08;;;;;;;2.53;1.10;;;;;;;;;;5109231;27;41636;-69
2023/07/27 00:22:36;;;;;;;1.23;0.63;;;;;;;;;;5109385;27;41123;-69
2023/07/27 00:25:04;;;;;;;0.95;0.50;;;;;;;;;;5108939;27;41301;-68
2023/07/27 00:27:33;;;;;;;0.70;0.60;;;;;;;;;;5108157;27;42916;-69
2023/07/27 00:30:02;;;;;;;0.85;0.50;;;;;;;;;;5102736;27;39901;-68
2023/07/27 00:32:30;;;;;;;1.45;0.82;;;;;;;;;;5103307;28;42411;-69
2023/07/27 00:34:58;;;;;;;0.57;0.52;;;;;;;;;;5107413;27;42244;-69
2023/07/27 00:37:26;;;;;;;0.90;0.60;;;;;;;;;;5109425;28;41432;-70
2023/07/27 00:39:54;;;;;;;0.95;0.60;;;;;;;;;;5109493;27;42188;-69
2023/07/27 00:42:22;;;;;;;1.50;0.60;;;;;;;;;;5106319;28;42290;-69
2023/07/27 00:44:52;;;;;;;0.60;0.52;;;;;;;;;;5108074;27;40935;-71
2023/07/27 00:47:20;;;;;;;1.58;0.75;;;;;;;;;;5102538;28;42766;-71
2023/07/27 00:49:48;;;;;;;0.88;0.60;;;;;;;;;;5108400;27;41373;-71
2023/07/27 00:52:16;;;;;;;2.47;0.70;;;;;;;;;;5100491;27;40017;-71
2023/07/27 00:54:44;;;;;;;1.00;0.68;;;;;;;;;;5101502;27;43256;-71
2023/07/27 00:57:12;;;;;;;0.60;0.40;;;;;;;;;;5108740;28;41922;-71
2023/07/27 00:59:40;;;;;;;0.95;0.85;;;;;;;;;;5109752;27;42209;-71
2023/07/27 01:02:10;;;;;;;3.55;0.57;;;;;;;;;;5124564;27;40795;-71
2023/07/27 01:04:37;;;;;;;1.83;0.85;;;;;;;;;;5107877;27;42690;-71
2023/07/27 01:07:06;;;;;;;1.00;0.60;;;;;;;;;;5095834;28;41936;-71
2023/07/27 01:09:33;;;;;;;0.52;0.50;;;;;;;;;;5106237;27;41418;-71
2023/07/27 01:12:03;;;;;;;2.10;0.70;;;;;;;;;;5130274;27;41672;-71
2023/07/27 01:14:32;;;;;;;1.63;0.80;;;;;;;;;;5115170;27;42944;-71
2023/07/27 01:17:02;;;;;;;1.13;0.80;;;;;;;;;;5109115;27;41361;-71
2023/07/27 01:19:36;;;;;;;0.82;0.75;;;;;;;;;;5105528;27;42220;-71
2023/07/27 01:22:08;;;;;;;1.10;0.68;;;;;;;;;;5106710;28;40843;-72
2023/07/27 01:24:51;;;;;;;1.13;0.88;;;;;;;;;;5106554;27;41847;-71
2023/07/27 01:27:21;;;;;;;1.02;0.90;;;;;;;;;;5106373;28;42770;-71
2023/07/27 01:30:04;;;;;;;0.82;0.60;;;;;;;;;;5108400;27;41369;-71
2023/07/27 01:32:34;;;;;;;0.80;0.80;;;;;;;;;;5093884;28;41396;-71
2023/07/27 01:35:02;;;;;;;0.73;0.68;;;;;;;;;;5108665;27;42243;-71
2023/07/27 01:37:30;;;;;;;0.60;0.47;;;;;;;;;;5105359;28;42365;-71
2023/07/27 01:40:00;;;;;;;1.00;0.70;;;;;;;;;;5089020;28;42371;-70
2023/07/27 01:42:28;;;;;;;1.60;0.80;;;;;;;;;;5092231;28;41494;-71
2023/07/27 01:44:56;;;;;;;1.50;0.75;;;;;;;;;;5108608;28;42762;-71
2023/07/27 01:47:24;;;;;;;0.75;0.45;;;;;;;;;;5108566;27;43089;-71
2023/07/27 01:49:53;;;;;;;1.38;0.70;;;;;;;;;;5107487;28;41405;-71
2023/07/27 01:52:21;;;;;;;1.45;0.60;;;;;;;;;;5108078;28;41492;-70
2023/07/27 01:54:49;;;;;;;0.88;0.70;;;;;;;;;;5088750;28;40696;-71
2023/07/27 01:57:17;;;;;;;1.02;0.63;;;;;;;;;;5088147;28;42244;-71
2023/07/27 01:59:45;;;;;;;2.13;0.70;;;;;;;;;;5112083;27;40745;-70
2023/07/27 02:02:14;;;;;;;0.90;0.68;;;;;;;;;;5107325;27;40466;-71
2023/07/27 02:04:42;;;;;;;0.85;0.70;;;;;;;;;;5103552;27;40587;-71
2023/07/27 02:07:11;;;;;;;1.75;0.55;;;;;;;;;;5088383;28;42138;-71
2023/07/27 02:09:39;;;;;;;0.65;0.50;;;;;;;;;;5086261;28;40762;-70
2023/07/27 02:12:09;;;;;;;0.95;0.60;;;;;;;;;;5087777;28;42073;-71
2023/07/27 02:14:38;;;;;;;1.25;0.65;;;;;;;;;;5087722;28;42235;-71
2023/07/27 02:17:07;;;;;;;0.70;0.68;;;;;;;;;;5088138;28;41482;-70
2023/07/27 02:19:36;;;;;;;0.73;0.60;;;;;;;;;;5085480;28;40327;-71
2023/07/27 02:22:04;;;;;;;2.25;0.70;;;;;;;;;;5086685;28;41717;-71
2023/07/27 02:24:34;;;;;;;0.68;0.57;;;;;;;;;;5097785;28;41349;-70
2023/07/27 02:27:02;;;;;;;0.70;0.40;;;;;;;;;;5107550;28;42165;-70
2023/07/27 02:29:30;;;;;;;1.25;0.80;;;;;;;;;;5106066;28;40955;-71
2023/07/27 02:31:58;;;;;;;2.22;0.82;;;;;;;;;;5106178;28;40418;-70
2023/07/27 02:34:26;;;;;;;0.80;0.70;;;;;;;;;;5106090;28;42103;-70
2023/07/27 02:36:54;;;;;;;2.00;0.77;;;;;;;;;;5106350;28;42939;-70
2023/07/27 02:39:22;;;;;;;1.00;0.70;;;;;;;;;;5106968;28;42220;-70
2023/07/27 02:41:52;;;;;;;0.68;0.60;;;;;;;;;;5104973;28;41861;-71
2023/07/27 02:44:21;;;;;;;1.38;0.90;;;;;;;;;;5106015;28;41151;-70
2023/07/27 02:46:48;;;;;;;0.70;0.70;;;;;;;;;;5105785;27;42286;-70
2023/07/27 02:49:17;;;;;;;0.70;0.50;;;;;;;;;;5106856;28;42003;-70
2023/07/27 02:51:45;;;;;;;1.02;0.50;;;;;;;;;;5105423;28;41266;-70
2023/07/27 02:54:13;;;;;;;2.20;1.08;;;;;;;;;;5104417;28;41582;-70
2023/07/27 02:56:41;;;;;;;0.63;0.60;;;;;;;;;;5104706;28;40527;-70
2023/07/27 02:59:11;;;;;;;1.17;0.70;;;;;;;;;;5105315;28;41232;-70
2023/07/27 03:01:44;;;;;;;0.85;0.60;;;;;;;;;;5100631;28;41688;-70
2023/07/27 03:04:17;;;;;;;1.38;0.80;;;;;;;;;;5102874;28;40653;-70
2023/07/27 03:06:45;;;;;;;0.60;0.60;;;;;;;;;;5097346;28;40292;-70
2023/07/27 03:09:14;;;;;;;1.00;0.70;;;;;;;;;;5100576;28;40388;-70
2023/07/27 03:11:42;;;;;;;0.93;0.70;;;;;;;;;;5104646;28;41705;-70
2023/07/27 03:14:11;;;;;;;0.70;0.60;;;;;;;;;;5106409;28;42064;-70
2023/07/27 03:16:39;;;;;;;0.70;0.60;;;;;;;;;;5102514;28;40804;-70
2023/07/27 03:19:07;;;;;;;0.68;0.68;;;;;;;;;;5088108;28;41400;-70
2023/07/27 03:21:36;;;;;;;0.80;0.55;;;;;;;;;;5086603;28;41718;-70
2023/07/27 03:24:04;;;;;;;3.05;0.68;;;;;;;;;;5103630;28;40697;-70
2023/07/27 03:26:33;;;;;;;1.23;0.85;;;;;;;;;;5104227;28;40751;-70
2023/07/27 03:29:02;;;;;;;0.70;0.70;;;;;;;;;;5105867;28;33254;-70
2023/07/27 03:31:31;;;;;;;0.65;0.60;;;;;;;;;;5066287;28;1085063;-70
2023/07/27 03:33:59;;;;;;;1.10;0.77;;;;;;;;;;5089262;28;42632;-70
2023/07/27 03:36:27;;;;;;;0.88;0.77;;;;;;;;;;5104716;28;39883;-71
2023/07/27 03:38:55;;;;;;;0.70;0.68;;;;;;;;;;5122549;27;41281;-70
2023/07/27 03:41:23;;;;;;;0.88;0.77;;;;;;;;;;5105200;28;40610;-70
2023/07/27 03:43:51;;;;;;;1.15;0.75;;;;;;;;;;5105290;28;40429;-71
2023/07/27 03:46:19;;;;;;;1.48;0.80;;;;;;;;;;5107117;28;43270;-71
2023/07/27 03:48:48;;;;;;;0.70;0.60;;;;;;;;;;5105525;28;43530;-70
2023/07/27 03:51:16;;;;;;;1.30;0.60;;;;;;;;;;5104636;28;40308;-71
2023/07/27 03:53:44;;;;;;;0.93;0.65;;;;;;;;;;5107132;28;41982;-70
2023/07/27 03:56:12;;;;;;;0.82;0.70;;;;;;;;;;5105611;28;40410;-70
2023/07/27 03:58:40;;;;;;;1.27;0.80;;;;;;;;;;5104091;28;41004;-70
2023/07/27 04:01:08;;;;;;;0.82;0.65;;;;;;;;;;5105222;28;41600;-70
2023/07/27 04:03:36;;;;;;;0.73;0.70;;;;;;;;;;5105125;28;39784;-70
2023/07/27 04:06:06;;;;;;;0.77;0.50;;;;;;;;;;5106501;27;42625;-70
2023/07/27 04:08:34;;;;;;;0.70;0.70;;;;;;;;;;5105328;27;42189;-70
2023/07/27 04:11:02;;;;;;;0.70;0.50;;;;;;;;;;5105619;28;40265;-70
2023/07/27 04:13:30;;;;;;;0.77;0.52;;;;;;;;;;5106177;28;43188;-70
2023/07/27 04:15:59;;;;;;;0.60;0.60;;;;;;;;;;5122707;27;39815;-71
2023/07/27 04:18:27;;;;;;;1.17;0.70;;;;;;;;;;5105256;28;42015;-70
2023/07/27 04:20:55;;;;;;;0.73;0.60;;;;;;;;;;5107101;28;41943;-70
2023/07/27 04:23:25;;;;;;;0.82;0.68;;;;;;;;;;5105019;28;40188;-70
2023/07/27 04:25:53;;;;;;;0.82;0.70;;;;;;;;;;5121177;27;40336;-70
2023/07/27 04:28:21;;;;;;;1.20;0.80;;;;;;;;;;5106131;28;43138;-70
2023/07/27 04:30:49;;;;;;;1.85;0.70;;;;;;;;;;5104067;28;39880;-70
2023/07/27 04:33:17;;;;;;;1.52;0.70;;;;;;;;;;5095168;28;42653;-70
2023/07/27 04:35:45;;;;;;;1.23;0.70;;;;;;;;;;5086276;28;42267;-70
2023/07/27 04:38:13;;;;;;;2.67;0.90;;;;;;;;;;5086308;28;41827;-70
2023/07/27 04:40:43;;;;;;;2.15;0.70;;;;;;;;;;5103222;28;42444;-70
2023/07/27 04:43:12;;;;;;;1.00;0.60;;;;;;;;;;5106590;28;41305;-70
2023/07/27 04:45:40;;;;;;;3.28;0.75;;;;;;;;;;5104591;28;40355;-71
2023/07/27 04:48:08;;;;;;;0.63;0.55;;;;;;;;;;5120681;27;41577;-70
2023/07/27 04:50:36;;;;;;;0.70;0.70;;;;;;;;;;5106257;28;41726;-70
2023/07/27 04:53:04;;;;;;;0.60;0.60;;;;;;;;;;5104628;28;39864;-70
2023/07/27 04:55:32;;;;;;;0.90;0.63;;;;;;;;;;5104510;28;42226;-70
2023/07/27 04:58:01;;;;;;;0.93;0.60;;;;;;;;;;5106514;28;41315;-70
2023/07/27 05:00:29;;;;;;;0.68;0.60;;;;;;;;;;5106343;27;41838;-70
2023/07/27 05:02:57;;;;;;;0.77;0.63;;;;;;;;;;5110019;27;42673;-70
2023/07/27 05:05:25;;;;;;;0.77;0.65;;;;;;;;;;5109423;27;41921;-70
2023/07/27 05:07:53;;;;;;;0.90;0.77;;;;;;;;;;5108099;27;43222;-71
2023/07/27 05:10:22;;;;;;;0.75;0.65;;;;;;;;;;5109448;27;41258;-70
2023/07/27 05:12:50;;;;;;;0.90;0.70;;;;;;;;;;5109493;27;41349;-70
2023/07/27 05:15:20;;;;;;;0.95;0.70;;;;;;;;;;5108595;27;42268;-70
2023/07/27 05:17:48;;;;;;;0.80;0.60;;;;;;;;;;5109487;27;42572;-70
2023/07/27 05:20:16;;;;;;;0.98;0.68;;;;;;;;;;5109227;27;42050;-70
2023/07/27 05:22:44;;;;;;;1.33;0.70;;;;;;;;;;5108435;27;41113;-70
2023/07/27 05:25:13;;;;;;;1.23;0.68;;;;;;;;;;5109162;27;41511;-70
2023/07/27 05:27:41;;;;;;;0.60;0.60;;;;;;;;;;5109187;27;42612;-71
2023/07/27 05:30:10;;;;;;;0.50;0.40;;;;;;;;;;5108732;27;42307;-70
2023/07/27 05:32:39;;;;;;;1.15;0.60;;;;;;;;;;5108665;27;42607;-71
2023/07/27 05:35:08;;;;;;;1.25;0.80;;;;;;;;;;5109412;27;41978;-70
2023/07/27 05:37:36;;;;;;;0.75;0.60;;;;;;;;;;5107621;27;42167;-70
2023/07/27 05:40:04;;;;;;;1.42;0.60;;;;;;;;;;5109115;27;41889;-70
2023/07/27 05:42:33;;;;;;;1.27;0.70;;;;;;;;;;5107775;27;41354;-70
2023/07/27 05:45:01;;;;;;;1.13;0.60;;;;;;;;;;5109067;27;42703;-70
2023/07/27 05:47:29;;;;;;;0.98;0.60;;;;;;;;;;5108311;27;42484;-70
2023/07/27 05:49:59;;;;;;;1.65;0.60;;;;;;;;;;5108658;27;41907;-70
2023/07/27 05:52:27;;;;;;;0.77;0.63;;;;;;;;;;5108757;27;42770;-70
2023/07/27 05:54:55;;;;;;;2.40;0.85;;;;;;;;;;5108853;27;41886;-70
2023/07/27 05:57:22;;;;;;;0.60;0.52;;;;;;;;;;5107672;27;41428;-70
2023/07/27 05:59:51;;;;;;;0.88;0.60;;;;;;;;;;5108872;27;41485;-69
2023/07/27 06:02:32;;;;;;;0.80;0.60;;;;;;;;;;5108559;27;42474;-69
2023/07/27 06:05:01;;;;;;;1.00;0.70;;;;;;;;;;5107948;27;41809;-69
2023/07/27 06:07:29;;;;;;;0.70;0.60;;;;;;;;;;5108025;27;43152;-69
2023/07/27 06:09:57;;;;;;;1.48;0.50;;;;;;;;;;5108129;27;41418;-69
2023/07/27 06:12:25;;;;;;;0.88;0.68;;;;;;;;;;5106136;27;41680;-69
2023/07/27 06:14:54;;;;;;;0.98;0.73;;;;;;;;;;5108563;27;42142;-69
2023/07/27 06:17:22;;;;;;;1.10;0.70;;;;;;;;;;5108396;27;40447;-69
2023/07/27 06:19:51;;;;;;;0.55;0.55;;;;;;;;;;5098010;27;42660;-69
2023/07/27 06:22:20;;;;;;;0.88;0.60;;;;;;;;;;5108830;27;42240;-68
2023/07/27 06:24:48;;;;;;;0.80;0.60;;;;;;;;;;5093015;27;41790;-69
2023/07/27 06:27:16;;;;;;;0.73;0.50;;;;;;;;;;5100393;28;42309;-70
2023/07/27 06:29:44;;;;;;;0.60;0.50;;;;;;;;;;5108140;27;41733;-69
2023/07/27 06:32:12;;;;;;;2.13;0.52;;;;;;;;;;5107597;27;41569;-69
2023/07/27 06:34:41;;;;;;;0.40;0.40;;;;;;;;;;5107675;27;41729;-69
2023/07/27 06:37:09;;;;;;;0.50;0.50;;;;;;;;;;5108318;27;42352;-69
2023/07/27 06:39:38;;;;;;;1.52;0.50;;;;;;;;;;5107127;27;42220;-69
2023/07/27 06:42:06;;;;;;;1.00;0.77;;;;;;;;;;5108692;27;43047;-71
2023/07/27 06:44:35;;;;;;;0.98;0.60;;;;;;;;;;5106056;28;39868;-69
2023/07/27 06:47:03;;;;;;;0.70;0.68;;;;;;;;;;5107352;27;43203;-69
2023/07/27 06:49:34;;;;;;;0.43;0.43;;;;;;;;;;5087899;27;40832;-70
2023/07/27 06:52:02;;;;;;;1.30;0.95;;;;;;;;;;5087628;28;42643;-70
2023/07/27 06:54:30;;;;;;;1.35;0.68;;;;;;;;;;5086337;28;42808;-69
2023/07/27 06:56:59;;;;;;;0.60;0.50;;;;;;;;;;5091982;28;41840;-69
2023/07/27 06:59:28;;;;;;;2.42;0.57;;;;;;;;;;5107347;27;41156;-70
2023/07/27 07:01:57;;;;;;;0.90;0.55;;;;;;;;;;5106847;27;42849;-69
2023/07/27 07:04:25;;;;;;;2.05;0.60;;;;;;;;;;5107009;27;42011;-69
2023/07/27 07:06:53;;;;;;;0.88;0.63;;;;;;;;;;5107721;27;42845;-69
2023/07/27 07:09:22;;;;;;;0.75;0.52;;;;;;;;;;5107678;27;42069;-69
2023/07/27 07:11:50;;;;;;;0.65;0.60;;;;;;;;;;5107429;27;41072;-69
2023/07/27 07:14:19;;;;;;;0.40;0.40;;;;;;;;;;5106875;27;42733;-69
2023/07/27 07:16:47;;;;;;;0.60;0.60;;;;;;;;;;5107324;27;41899;-69
2023/07/27 07:19:15;;;;;;;0.50;0.50;;;;;;;;;;5108002;27;41238;-70
2023/07/27 07:21:43;;;;;;;0.50;0.40;;;;;;;;;;5106587;27;42791;-69
2023/07/27 07:24:11;;;;;;;0.65;0.57;;;;;;;;;;5107174;27;41732;-70
2023/07/27 07:26:39;;;;;;;0.70;0.50;;;;;;;;;;5106790;27;41693;-69
2023/07/27 07:29:09;;;;;;;0.45;0.40;;;;;;;;;;5107418;27;42172;-69
2023/07/27 07:31:38;;;;;;;0.70;0.50;;;;;;;;;;5106768;27;42553;-69
2023/07/27 07:34:06;;;;;;;0.70;0.52;;;;;;;;;;5107681;27;41673;-69
2023/07/27 07:36:34;;;;;;;0.40;0.40;;;;;;;;;;5106359;27;41461;-68
2023/07/27 07:39:03;;;;;;;0.60;0.50;;;;;;;;;;5090304;27;41799;-69
2023/07/27 07:41:31;;;;;;;0.50;0.43;;;;;;;;;;5086341;28;42047;-69
2023/07/27 07:43:59;;;;;;;0.40;0.40;;;;;;;;;;5099288;28;40798;-69
2023/07/27 07:46:27;;;;;;;3.28;0.60;;;;;;;;;;5101558;27;42688;-69
2023/07/27 07:48:57;;;;;;;0.30;0.30;;;;;;;;;;5107667;27;43080;-69
2023/07/27 07:51:25;;;;;;;0.43;0.40;;;;;;;;;;5107588;27;42029;-69
2023/07/27 07:53:53;;;;;;;0.40;0.40;;;;;;;;;;5107688;27;42281;-69
2023/07/27 07:56:21;;;;;;;0.50;0.35;;;;;;;;;;5106049;27;41264;-70
2023/07/27 07:58:49;;;;;;;0.52;0.50;;;;;;;;;;5107044;27;41701;-70
2023/07/27 08:01:17;;;;;;;0.50;0.40;;;;;;;;;;5106597;27;42131;-69
2023/07/27 08:03:45;;;;;;;0.60;0.40;;;;;;;;;;5101265;27;40733;-73
2023/07/27 08:06:14;;;;;;;2.33;1.05;;;;;;;;;;5101288;27;41978;-75
2023/07/27 08:08:42;;;;;;;3.08;1.23;;;;;;;;;;5100479;27;41995;-75
2023/07/27 08:11:10;;;;;;;5.93;1.35;;;;;;;;;;5106937;27;41331;-79
2023/07/27 08:13:40;;;;;;;9.30;1.52;;;;;;;;;;5102511;27;42607;-77
2023/07/27 08:16:08;;;;;;;2.45;1.02;;;;;;;;;;5098454;27;41550;-74
2023/07/27 08:18:36;;;;;;;3.45;1.40;;;;;;;;;;5097768;28;41652;-72
2023/07/27 08:21:05;;;;;;;4.38;1.00;;;;;;;;;;5099567;27;41534;-70
2023/07/27 08:23:34;;;;;;;4.65;1.10;;;;;;;;;;5097503;28;41980;-72
2023/07/27 08:26:03;;;;;;;3.00;1.15;;;;;;;;;;5096119;27;41759;-72
2023/07/27 08:28:31;;;;;;;1.48;0.90;;;;;;;;;;5093248;27;43071;-69
2023/07/27 08:30:59;;;;;;;2.72;0.88;;;;;;;;;;5095008;27;43451;-70
2023/07/27 08:33:27;;;;;;;3.63;0.75;;;;;;;;;;5096718;27;41610;-71
2023/07/27 08:35:55;;;;;;;1.77;0.70;;;;;;;;;;5088143;28;41976;-69
2023/07/27 08:38:23;;;;;;;1.00;0.80;;;;;;;;;;5089097;28;41906;-73
2023/07/27 08:40:56;;;;;;;3.97;0.90;;;;;;;;;;5091148;28;42212;-73
2023/07/27 08:43:24;;;;;;;0.90;0.80;;;;;;;;;;5102343;27;41424;-72
2023/07/27 08:45:52;;;;;;;4.00;0.80;;;;;;;;;;5106996;28;41622;-71
2023/07/27 08:48:20;;;;;;;2.33;0.75;;;;;;;;;;5109224;27;42344;-71
2023/07/27 08:50:48;;;;;;;3.38;0.98;;;;;;;;;;5109204;27;42345;-70
2023/07/27 08:53:16;;;;;;;7.15;1.00;;;;;;;;;;5108948;27;41736;-71
2023/07/27 08:55:44;;;;;;;5.22;1.00;;;;;;;;;;5110292;27;41771;-71
2023/07/27 08:58:14;;;;;;;5.55;1.00;;;;;;;;;;5109644;27;41393;-71
2023/07/27 09:00:42;;;;;;;2.25;0.88;;;;;;;;;;5108941;27;42182;-70
2023/07/27 09:03:10;;;;;;;1.17;0.77;;;;;;;;;;5110098;27;41659;-70
2023/07/27 09:05:38;;;;;;;2.13;0.77;;;;;;;;;;5109172;27;41749;-70
2023/07/27 09:08:07;;;;;;;2.00;0.85;;;;;;;;;;5108999;27;42645;-70
2023/07/27 09:10:35;;;;;;;1.33;0.93;;;;;;;;;;5108902;27;41241;-70
2023/07/27 09:13:04;;;;;;;3.08;0.80;;;;;;;;;;5107718;27;42182;-71
2023/07/27 09:15:33;;;;;;;3.50;0.80;;;;;;;;;;5106757;27;41954;-70
2023/07/27 09:18:01;;;;;;;1.88;0.60;;;;;;;;;;5107984;27;40993;-70
2023/07/27 09:20:31;;;;;;;9.45;1.10;;;;;;;;;;5100538;27;41713;-69
2023/07/27 09:22:59;;;;;;;3.70;1.00;;;;;;;;;;5092490;28;41349;-70
2023/07/27 09:25:27;;;;;;;5.05;0.80;;;;;;;;;;5101221;28;41199;-67
2023/07/27 09:27:55;;;;;;;13.20;1.45;;;;;;;;;;5095598;27;42295;-71
2023/07/27 09:30:23;;;;;;;1.55;0.90;;;;;;;;;;5088328;28;41039;-73
2023/07/27 09:32:53;;;;;;;5.75;0.85;;;;;;;;;;5103050;28;42567;-73
2023/07/27 09:35:21;;;;;;;5.25;0.80;;;;;;;;;;5108372;27;42253;-72
2023/07/27 09:37:50;;;;;;;1.98;0.82;;;;;;;;;;5097562;27;40853;-73
2023/07/27 09:40:19;;;;;;;1.92;0.80;;;;;;;;;;5088795;28;41968;-72
2023/07/27 09:42:47;;;;;;;1.65;0.77;;;;;;;;;;5091171;28;41966;-73
2023/07/27 09:45:15;;;;;;;1.15;0.75;;;;;;;;;;5096564;27;41897;-71
2023/07/27 09:47:43;;;;;;;1.80;0.80;;;;;;;;;;5088341;28;42135;-73
2023/07/27 09:50:12;;;;;;;0.75;0.60;;;;;;;;;;5103653;28;42397;-71
2023/07/27 09:52:40;;;;;;;3.97;0.80;;;;;;;;;;5108684;27;41413;-73
2023/07/27 09:55:08;;;;;;;4.90;0.90;;;;;;;;;;5099042;27;41668;-75
2023/07/27 09:57:37;;;;;;;4.38;0.90;;;;;;;;;;5107686;28;41277;-70
2023/07/27 10:00:06;;;;;;;4.80;1.08;;;;;;;;;;5107927;27;41378;-74
2023/07/27 10:02:39;;;;;;;3.28;1.40;;;;;;;;;;5108266;28;42369;-72
2023/07/27 10:05:07;;;;;;;2.42;0.93;;;;;;;;;;5106213;27;41728;-68
2023/07/27 10:07:40;;;;;;;5.30;0.80;;;;;;;;;;5093502;27;42280;-68
2023/07/27 10:10:25;;;;;;;2.72;0.80;;;;;;;;;;5100540;27;42430;-68
2023/07/27 10:12:55;;;;;;;1.38;0.80;;;;;;;;;;5104011;27;42816;-68
2023/07/27 10:15:25;;;;;;;1.83;0.80;;;;;;;;;;5098400;27;42200;-68
2023/07/27 10:17:55;;;;;;;2.00;1.05;;;;;;;;;;5106968;27;42331;-68
2023/07/27 10:20:24;;;;;;;6.45;0.98;;;;;;;;;;5106461;27;41638;-69
2023/07/27 10:22:54;;;;;;;3.13;0.80;;;;;;;;;;5103040;28;42972;-68
2023/07/27 10:25:22;;;;;;;7.68;0.60;;;;;;;;;;5119665;27;41754;-68
2023/07/27 10:27:56;;;;;;;4.40;1.02;;;;;;;;;;5101371;27;41715;-69
2023/07/27 10:30:24;;;;;;;6.20;0.90;;;;;;;;;;5102360;27;41417;-66
2023/07/27 10:33:07;;;;;;;5.90;1.05;;;;;;;;;;5104207;28;41298;-66
2023/07/27 10:35:50;;;;;;;4.22;0.80;;;;;;;;;;5104942;27;42168;-67
2023/07/27 10:38:21;;;;;;;2.05;0.90;;;;;;;;;;5095464;28;41225;-66
2023/07/27 10:40:49;;;;;;;2.90;1.17;;;;;;;;;;5096050;28;42164;-66
2023/07/27 10:43:16;;;;;;;4.22;0.70;;;;;;;;;;5095695;28;42528;-65
2023/07/27 10:45:52;;;;;;;2.92;0.65;;;;;;;;;;5102513;27;42320;-65
2023/07/27 10:48:20;;;;;;;1.88;0.73;;;;;;;;;;5087571;28;42143;-65
2023/07/27 10:50:48;;;;;;;3.88;1.20;;;;;;;;;;5107246;27;41425;-65
2023/07/27 10:53:16;;;;;;;2.30;0.93;;;;;;;;;;5106892;27;41485;-65
2023/07/27 10:55:45;;;;;;;2.28;0.90;;;;;;;;;;5105657;27;43119;-65
2023/07/27 10:58:13;;;;;;;1.67;0.75;;;;;;;;;;5105710;27;40955;-66
2023/07/27 11:00:42;;;;;;;2.15;0.95;;;;;;;;;;5101054;28;42553;-68
2023/07/27 11:03:10;;;;;;;3.55;0.80;;;;;;;;;;5097123;27;41713;-66
2023/07/27 11:05:39;;;;;;;1.92;0.77;;;;;;;;;;5098201;27;41116;-66
2023/07/27 11:08:06;;;;;;;1.70;0.88;;;;;;;;;;5095511;28;41803;-65
2023/07/27 11:10:34;;;;;;;7.07;1.33;;;;;;;;;;5096534;28;41037;-65
2023/07/27 11:13:04;;;;;;;2.40;1.00;;;;;;;;;;5098771;28;41113;-65
2023/07/27 11:15:32;;;;;;;1.15;1.05;;;;;;;;;;5100154;28;42102;-66
2023/07/27 11:18:00;;;;;;;1.48;1.20;;;;;;;;;;5094368;27;41821;-66
2023/07/27 11:20:29;;;;;;;2.53;1.05;;;;;;;;;;5093935;27;41298;-66
2023/07/27 11:22:57;;;;;;;1.33;0.77;;;;;;;;;;5094197;27;42377;-67
2023/07/27 11:25:25;;;;;;;1.98;0.77;;;;;;;;;;5097885;27;41276;-66
2023/07/27 11:27:54;;;;;;;10.25;1.80;;;;;;;;;;5086522;28;41737;-66
2023/07/27 11:30:24;;;;;;;8.57;1.20;;;;;;;;;;5087025;28;43743;-66
2023/07/27 11:32:58;;;;;;;8.77;1.63;;;;;;;;;;5092420;28;42141;-65
2023/07/27 11:35:26;;;;;;;9.65;1.38;;;;;;;;;;5098970;27;41712;-65
2023/07/27 11:37:54;;;;;;;8.82;1.70;;;;;;;;;;5107590;27;41100;-66
2023/07/27 11:40:23;;;;;;;7.85;1.40;;;;;;;;;;5104691;27;41579;-66
2023/07/27 11:42:51;;;;;;;4.60;1.63;;;;;;;;;;5104886;27;41683;-66
2023/07/27 11:45:19;;;;;;;2.40;1.50;;;;;;;;;;5105329;27;42312;-66
2023/07/27 11:47:50;;;;;;;4.53;1.40;;;;;;;;;;5105013;27;41628;-66
2023/07/27 11:50:20;;;;;;;3.80;1.27;;;;;;;;;;5104237;27;41505;-66
2023/07/27 11:52:50;;;;;;;7.00;1.80;;;;;;;;;;5105074;27;41228;-66
2023/07/27 11:55:18;;;;;;;2.97;1.20;;;;;;;;;;5106063;27;42225;-66
2023/07/27 11:57:49;;;;;;;3.05;1.23;;;;;;;;;;5106825;27;40901;-66
2023/07/27 12:00:18;;;;;;;4.00;1.20;;;;;;;;;;5106769;27;41389;-66
2023/07/27 12:02:48;;;;;;;3.50;1.05;;;;;;;;;;5106447;27;43057;-66
2023/07/27 12:05:17;;;;;;;3.33;1.60;;;;;;;;;;5107036;27;40422;-66
2023/07/27 12:07:45;;;;;;;1.52;1.25;;;;;;;;;;5106417;27;42634;-66
2023/07/27 12:10:16;;;;;;;1.63;1.50;;;;;;;;;;5106690;27;43077;-66
2023/07/27 12:12:48;;;;;;;2.08;1.60;;;;;;;;;;5111318;27;41797;-66
2023/07/27 12:15:27;;;;;;;3.17;1.58;;;;;;;;;;5110770;27;42118;-66
2023/07/27 12:17:57;;;;;;;1.73;1.15;;;;;;;;;;5110120;27;41975;-66
2023/07/27 12:20:25;;;;;;;3.47;1.63;;;;;;;;;;5109703;27;41559;-66
2023/07/27 12:23:13;;;;;;;2.95;1.63;;;;;;;;;;5103522;27;42731;-66
2023/07/27 12:25:44;;;;;;;1.30;1.10;;;;;;;;;;5101753;27;42004;-67
2023/07/27 12:28:12;;;;;;;23.92;2.47;;;;;;;;;;5103537;27;41865;-64
2023/07/27 12:30:43;;;;;;;10.88;1.80;;;;;;;;;;5100438;27;41971;-64
2023/07/27 12:33:12;;;;;;;5.35;1.25;;;;;;;;;;5099766;28;40553;-64
2023/07/27 12:35:40;;;;;;;14.57;1.58;;;;;;;;;;5108224;27;42784;-63
2023/07/27 12:38:08;;;;;;;9.40;1.50;;;;;;;;;;5096545;28;41452;-63
2023/07/27 12:40:39;;;;;;;14.07;1.98;;;;;;;;;;5109338;27;42586;-63
2023/07/27 12:43:10;;;;;;;5.03;1.40;;;;;;;;;;5109751;27;42468;-63
2023/07/27 12:45:38;;;;;;;3.03;1.45;;;;;;;;;;5108031;27;41279;-63
2023/07/27 12:48:06;;;;;;;1.92;1.10;;;;;;;;;;5108342;27;42287;-63
2023/07/27 12:50:36;;;;;;;3.70;1.38;;;;;;;;;;5107358;27;42144;-63
2023/07/27 12:53:03;;;;;;;9.20;1.40;;;;;;;;;;5107718;27;42010;-63
2023/07/27 12:55:31;;;;;;;4.07;1.38;;;;;;;;;;5107509;27;42158;-62
2023/07/27 12:57:59;;;;;;;7.18;1.60;;;;;;;;;;5109102;27;43087;-63
2023/07/27 13:00:27;;;;;;;2.38;1.38;;;;;;;;;;5106647;27;42363;-63
2023/07/27 13:02:56;;;;;;;3.83;1.33;;;;;;;;;;5109834;27;42105;-63
2023/07/27 13:05:24;;;;;;;2.17;1.25;;;;;;;;;;5109750;27;42501;-63
2023/07/27 13:07:53;;;;;;;1.60;1.30;;;;;;;;;;5109309;27;41301;-62
2023/07/27 13:10:21;;;;;;;2.53;1.20;;;;;;;;;;5109437;27;42731;-65
2023/07/27 13:12:49;;;;;;;4.28;1.58;;;;;;;;;;5108433;27;41753;-62
2023/07/27 13:15:18;;;;;;;2.03;1.20;;;;;;;;;;5109573;27;41792;-63
2023/07/27 13:17:47;;;;;;;3.33;1.20;;;;;;;;;;5108916;27;42630;-63
2023/07/27 13:20:15;;;;;;;4.75;1.38;;;;;;;;;;5109258;27;41070;-62
2023/07/27 13:22:43;;;;;;;3.03;1.17;;;;;;;;;;5108965;27;42293;-63
2023/07/27 13:25:13;;;;;;;1.30;1.10;;;;;;;;;;5109524;27;41893;-62
2023/07/27 13:27:40;;;;;;;2.47;1.23;;;;;;;;;;5108407;27;42301;-63
2023/07/27 13:30:09;;;;;;;3.17;1.58;;;;;;;;;;5109157;27;43123;-62
2023/07/27 13:32:37;;;;;;;1.63;1.13;;;;;;;;;;5108588;27;41164;-63
2023/07/27 13:35:05;;;;;;;1.75;1.17;;;;;;;;;;5108962;27;41651;-63
2023/07/27 13:37:33;;;;;;;3.70;1.25;;;;;;;;;;5108694;27;42775;-63
2023/07/27 13:40:02;;;;;;;2.13;1.42;;;;;;;;;;5109686;27;40876;-63
2023/07/27 13:42:31;;;;;;;1.17;1.08;;;;;;;;;;5107940;27;42690;-63
2023/07/27 13:44:59;;;;;;;1.73;1.20;;;;;;;;;;5109340;27;40972;-63
2023/07/27 13:47:29;;;;;;;1.35;1.02;;;;;;;;;;5108754;27;41693;-62
2023/07/27 13:49:56;;;;;;;2.60;1.40;;;;;;;;;;5108416;27;42200;-62
2023/07/27 13:52:24;;;;;;;3.20;1.20;;;;;;;;;;5109050;27;41081;-62
2023/07/27 13:54:53;;;;;;;1.20;1.10;;;;;;;;;;5108061;27;41658;-62
2023/07/27 13:57:20;;;;;;;2.33;1.58;;;;;;;;;;5104340;27;42660;-62
2023/07/27 13:59:50;;;;;;;5.50;1.40;;;;;;;;;;5100894;27;41130;-62
2023/07/27 14:02:18;;;;;;;3.17;1.50;;;;;;;;;;5098493;28;42362;-62
2023/07/27 14:04:46;;;;;;;2.70;1.30;;;;;;;;;;5108370;27;33123;-62
2023/07/27 14:07:14;;;;;;;4.50;1.50;;;;;;;;;;5108532;27;41696;-62
2023/07/27 14:09:42;;;;;;;3.58;1.65;;;;;;;;;;5103044;27;43190;-62
2023/07/27 14:12:10;;;;;;;2.05;1.10;;;;;;;;;;5099088;27;41474;-62
2023/07/27 14:14:38;;;;;;;2.03;1.40;;;;;;;;;;5103147;27;41814;-63
2023/07/27 14:17:07;;;;;;;1.35;1.25;;;;;;;;;;5107588;27;43089;-62
2023/07/27 14:19:35;;;;;;;1.58;1.30;;;;;;;;;;5106649;27;40837;-63
2023/07/27 14:22:03;;;;;;;2.65;1.38;;;;;;;;;;5108263;27;41777;-63
2023/07/27 14:24:31;;;;;;;1.65;1.30;;;;;;;;;;5107354;27;43092;-63
2023/07/27 14:26:59;;;;;;;2.08;1.23;;;;;;;;;;5106902;27;42526;-63
2023/07/27 14:29:27;;;;;;;1.35;1.13;;;;;;;;;;5107353;27;42121;-62
2023/07/27 14:31:54;;;;;;;4.32;1.35;;;;;;;;;;5106142;27;41061;-62
2023/07/27 14:34:24;;;;;;;1.92;1.20;;;;;;;;;;5107250;27;41556;-62
2023/07/27 14:36:52;;;;;;;2.65;1.25;;;;;;;;;;5106722;27;42990;-65
2023/07/27 14:39:21;;;;;;;2.65;1.30;;;;;;;;;;5108333;27;41388;-63
2023/07/27 14:41:50;;;;;;;2.58;1.20;;;;;;;;;;5106947;27;41376;-63
2023/07/27 14:44:18;;;;;;;3.15;1.30;;;;;;;;;;5098399;27;41592;-62
2023/07/27 14:46:46;;;;;;;4.47;1.10;;;;;;;;;;5108225;27;40824;-62
2023/07/27 14:49:14;;;;;;;1.02;0.93;;;;;;;;;;5106800;27;42759;-63
2023/07/27 14:51:43;;;;;;;2.80;1.00;;;;;;;;;;5106876;27;40743;-62